Time;durP1;ratioP1;P1;durP2;ratioP2;P2;SDS_P1;SDS_P2;PMS_P1;PMS_P2;Temp;Humidity;BMP_temperature;BMP_pressure;BME280_temperature;BME280_humidity;BME280_pressure;Samples;Min_cycle;Max_cycle;Signal;HPM_P1;HPM_P2
2022/08/23 00:01:05;;;;;;;6.15;5.57;;;15.40;99.90;;;;;;6132170;23;20016;-79
2022/08/23 00:03:31;;;;;;;5.65;5.15;;;15.30;99.90;;;;;;6157673;23;20032;-80
2022/08/23 00:05:56;;;;;;;7.95;7.25;;;15.30;99.90;;;;;;6157568;23;20017;-80
2022/08/23 00:08:23;;;;;;;9.30;8.38;;;15.20;99.90;;;;;;6133440;23;20021;-80
2022/08/23 00:10:48;;;;;;;7.20;6.50;;;15.30;99.90;;;;;;6156977;23;20465;-80
2022/08/23 00:13:14;;;;;;;7.40;6.78;;;15.40;99.90;;;;;;6157216;23;20058;-80
2022/08/23 00:15:40;;;;;;;6.93;6.28;;;15.40;99.90;;;;;;6156961;23;20088;-80
2022/08/23 00:18:05;;;;;;;6.30;5.80;;;15.40;99.90;;;;;;6157533;23;20133;-79
2022/08/23 00:20:31;;;;;;;6.68;6.07;;;15.30;99.90;;;;;;6158022;23;20013;-79
2022/08/23 00:22:57;;;;;;;6.63;6.00;;;15.30;99.90;;;;;;6157281;23;20025;-80
2022/08/23 00:25:22;;;;;;;6.53;5.88;;;15.20;99.90;;;;;;6132822;23;20092;-80
2022/08/23 00:27:48;;;;;;;7.13;6.53;;;15.20;99.90;;;;;;6157027;23;20454;-80
2022/08/23 00:30:15;;;;;;;6.63;5.90;;;15.10;99.90;;;;;;6132964;23;20024;-80
2022/08/23 00:32:42;;;;;;;6.40;5.80;;;15.10;99.90;;;;;;6132007;23;20009;-80
2022/08/23 00:35:09;;;;;;;6.15;5.60;;;15.10;99.90;;;;;;6156930;23;20016;-80
2022/08/23 00:37:36;;;;;;;7.43;6.68;;;15.00;99.90;;;;;;6157025;23;20005;-80
2022/08/23 00:40:04;;;;;;;6.18;5.57;;;15.00;99.90;;;;;;6157676;23;20289;-80
2022/08/23 00:48:54;;;;;;;5.82;5.32;;;14.90;99.90;;;;;;6182062;23;20051;-80
2022/08/23 00:51:26;;;;;;;6.10;5.50;;;14.90;99.90;;;;;;6157231;23;20024;-80
2022/08/23 00:53:58;;;;;;;6.30;5.70;;;14.80;99.90;;;;;;6157039;23;20013;-79
2022/08/23 00:56:26;;;;;;;6.68;6.18;;;14.80;99.90;;;;;;6157097;23;20040;-80
2022/08/23 00:58:52;;;;;;;6.15;5.60;;;14.70;99.90;;;;;;6157343;23;20068;-80
2022/08/23 01:01:18;;;;;;;6.38;5.68;;;14.70;99.90;;;;;;6157235;23;20009;-79
2022/08/23 01:03:49;;;;;;;6.22;5.72;;;14.70;99.90;;;;;;6157466;23;20013;-79
2022/08/23 01:06:42;;;;;;;6.60;6.00;;;14.60;99.90;;;;;;6132803;23;20017;-80
2022/08/23 01:09:13;;;;;;;5.95;5.45;;;14.60;99.90;;;;;;6132237;23;20020;-80
2022/08/23 01:12:13;;;;;;;6.53;5.93;;;14.60;99.90;;;;;;6156815;23;20136;-79
2022/08/23 01:14:58;;;;;;;7.05;6.45;;;14.50;99.90;;;;;;6154161;23;20020;-80
2022/08/23 01:17:50;;;;;;;7.70;6.88;;;14.40;99.90;;;;;;6132554;23;20009;-80
2022/08/23 01:20:21;;;;;;;7.00;6.40;;;14.40;99.90;;;;;;6151771;23;20594;-80
2022/08/23 01:22:53;;;;;;;6.20;5.65;;;14.40;99.90;;;;;;6133353;23;20043;-80
2022/08/23 01:25:22;;;;;;;7.10;6.50;;;14.40;99.90;;;;;;6134817;23;20009;-80
2022/08/23 01:27:48;;;;;;;7.13;6.45;;;14.40;99.90;;;;;;6158449;23;20515;-80
2022/08/23 01:30:18;;;;;;;6.47;5.97;;;14.40;99.90;;;;;;6158935;23;20013;-80
2022/08/23 01:32:48;;;;;;;6.65;6.05;;;14.30;99.90;;;;;;6159374;23;20323;-80
2022/08/23 01:35:15;;;;;;;6.03;5.53;;;14.30;99.90;;;;;;6158948;23;20346;-80
2022/08/23 01:37:42;;;;;;;6.35;5.78;;;14.20;99.90;;;;;;6158128;23;20048;-80
2022/08/23 01:40:08;;;;;;;5.82;5.28;;;14.20;99.90;;;;;;6133432;23;20414;-80
2022/08/23 01:42:33;;;;;;;6.63;6.03;;;14.20;99.90;;;;;;6158289;23;20060;-80
2022/08/23 01:45:00;;;;;;;6.90;6.25;;;14.10;99.90;;;;;;6134292;23;20013;-80
2022/08/23 01:47:25;;;;;;;6.65;6.05;;;14.10;99.90;;;;;;6133955;23;20009;-80
2022/08/23 01:49:51;;;;;;;6.00;5.43;;;14.20;99.90;;;;;;6133734;23;20006;-80
2022/08/23 01:52:18;;;;;;;6.90;6.30;;;14.00;99.90;;;;;;6158617;23;20051;-80
2022/08/23 01:54:44;;;;;;;7.32;6.63;;;14.10;99.90;;;;;;6158625;23;20013;-80
2022/08/23 01:57:09;;;;;;;6.63;5.90;;;14.10;99.90;;;;;;6158371;23;20342;-80
2022/08/23 01:59:35;;;;;;;6.40;5.80;;;14.10;99.90;;;;;;6159371;23;20044;-80
2022/08/23 02:02:02;;;;;;;6.22;5.65;;;14.00;99.90;;;;;;6158199;23;20497;-80
2022/08/23 02:04:28;;;;;;;6.35;5.75;;;14.00;99.90;;;;;;6159050;23;20319;-80
2022/08/23 02:06:53;;;;;;;6.55;5.95;;;14.00;99.90;;;;;;6134140;23;20047;-80
2022/08/23 02:09:19;;;;;;;7.78;7.07;;;13.90;99.90;;;;;;6134068;23;20438;-80
2022/08/23 02:11:45;;;;;;;6.88;6.18;;;13.90;99.90;;;;;;6133640;23;20031;-80
2022/08/23 02:14:17;;;;;;;7.65;6.93;;;13.90;99.90;;;;;;6158737;23;20068;-80
2022/08/23 02:16:49;;;;;;;7.40;6.70;;;13.90;99.90;;;;;;6158068;23;20484;-81
2022/08/23 02:19:15;;;;;;;7.80;7.10;;;13.80;99.90;;;;;;6158739;23;20389;-80
2022/08/23 02:21:41;;;;;;;7.32;6.65;;;13.80;99.90;;;;;;6158524;23;20009;-80
2022/08/23 02:24:12;;;;;;;7.57;6.95;;;13.80;99.90;;;;;;6183746;23;20040;-80
2022/08/23 02:26:42;;;;;;;7.25;6.65;;;13.80;99.90;;;;;;6158173;23;20397;-80
2022/08/23 02:29:08;;;;;;;7.32;6.63;;;13.80;99.90;;;;;;6134077;23;20053;-80
2022/08/23 02:31:34;;;;;;;7.55;6.15;;;13.80;99.90;;;;;;6133301;23;20012;-80
2022/08/23 02:34:00;;;;;;;6.20;5.60;;;13.80;99.90;;;;;;6133575;23;20035;-80
2022/08/23 02:36:26;;;;;;;6.40;5.80;;;13.70;99.90;;;;;;6158778;23;20071;-80
2022/08/23 02:38:54;;;;;;;6.38;5.80;;;13.70;99.90;;;;;;6133893;23;20434;-80
2022/08/23 02:41:20;;;;;;;6.78;6.03;;;13.60;99.90;;;;;;6158157;23;20056;-80
2022/08/23 02:43:46;;;;;;;6.07;5.47;;;13.60;99.90;;;;;;6158100;23;20512;-80
2022/08/23 02:46:11;;;;;;;6.25;5.65;;;13.60;99.90;;;;;;6158480;23;20013;-80
2022/08/23 02:48:38;;;;;;;6.35;5.75;;;13.60;99.90;;;;;;6133867;23;20026;-80
2022/08/23 02:51:07;;;;;;;6.47;5.88;;;13.60;99.90;;;;;;6133661;23;20103;-80
2022/08/23 02:53:33;;;;;;;5.93;5.32;;;13.50;99.90;;;;;;6157772;23;20349;-80
2022/08/23 02:55:59;;;;;;;6.28;5.68;;;13.50;99.90;;;;;;6133911;23;20012;-80
2022/08/23 02:58:25;;;;;;;6.25;5.72;;;13.60;99.90;;;;;;6133311;23;20350;-80
2022/08/23 03:00:52;;;;;;;6.90;6.18;;;13.50;99.90;;;;;;6158073;23;20013;-80
2022/08/23 03:03:18;;;;;;;6.60;6.00;;;13.50;99.90;;;;;;6133906;23;20017;-80
2022/08/23 03:05:44;;;;;;;7.63;6.93;;;13.50;99.90;;;;;;6157974;23;20036;-80
2022/08/23 03:08:10;;;;;;;8.23;6.55;;;13.50;99.90;;;;;;6158202;23;20232;-80
2022/08/23 03:10:40;;;;;;;6.57;5.97;;;13.60;99.90;;;;;;6157720;23;20017;-80
2022/08/23 03:13:06;;;;;;;6.45;5.85;;;13.50;99.90;;;;;;6158031;23;20013;-80
2022/08/23 03:15:32;;;;;;;6.60;6.00;;;13.60;99.90;;;;;;6157972;23;20112;-80
2022/08/23 03:17:58;;;;;;;6.55;5.95;;;13.50;99.90;;;;;;6158086;23;20405;-80
2022/08/23 03:20:24;;;;;;;7.00;6.40;;;13.50;99.90;;;;;;6133799;23;20013;-80
2022/08/23 03:22:49;;;;;;;7.75;6.95;;;13.50;99.90;;;;;;6133245;23;20013;-80
2022/08/23 03:25:15;;;;;;;7.78;7.07;;;13.50;99.90;;;;;;6133013;23;20013;-80
2022/08/23 03:27:41;;;;;;;7.40;6.70;;;13.50;99.90;;;;;;6156684;23;20017;-80
2022/08/23 03:30:08;;;;;;;7.32;6.63;;;13.50;99.90;;;;;;6157775;23;20488;-80
2022/08/23 03:32:34;;;;;;;6.68;6.05;;;13.50;99.90;;;;;;6133098;23;20009;-80
2022/08/23 03:34:59;;;;;;;8.18;7.43;;;13.50;99.90;;;;;;6158092;23;20069;-80
2022/08/23 03:37:25;;;;;;;7.03;6.32;;;13.60;99.90;;;;;;6132896;23;20055;-80
2022/08/23 03:39:51;;;;;;;7.50;6.82;;;13.50;99.90;;;;;;6133625;23;20084;-80
2022/08/23 03:42:17;;;;;;;7.07;6.43;;;13.50;99.90;;;;;;6157750;23;20096;-80
2022/08/23 03:44:43;;;;;;;7.03;6.43;;;13.60;99.90;;;;;;6133545;23;20013;-81
2022/08/23 03:47:09;;;;;;;6.72;6.13;;;13.50;99.90;;;;;;6133110;23;20013;-80
2022/08/23 03:49:35;;;;;;;7.10;6.47;;;13.60;99.90;;;;;;6132951;23;20024;-80
2022/08/23 03:52:00;;;;;;;7.60;7.00;;;13.50;99.90;;;;;;6132791;23;20323;-80
2022/08/23 03:54:26;;;;;;;7.25;6.55;;;13.50;99.90;;;;;;6157396;23;20066;-80
2022/08/23 03:57:01;;;;;;;8.00;7.20;;;13.60;99.90;;;;;;6133046;23;20020;-80
2022/08/23 03:59:28;;;;;;;7.55;6.85;;;13.50;99.90;;;;;;6133426;23;20015;-80
2022/08/23 04:01:54;;;;;;;7.80;7.10;;;13.50;99.90;;;;;;6157534;23;20009;-80
2022/08/23 04:04:21;;;;;;;8.02;7.32;;;13.50;99.90;;;;;;6157694;23;20059;-80
2022/08/23 04:07:30;;;;;;;8.13;7.43;;;13.50;99.90;;;;;;6157603;23;20501;-78
2022/08/23 04:11:05;;;;;;;7.70;7.00;;;13.60;99.90;;;;;;6230348;23;20046;-78
2022/08/23 04:15:10;;;;;;;;;;;;;;;;;;;;;
2022/08/23 04:24:39;;;;;;;7.07;6.38;;;13.50;99.90;;;;;;6009980;23;20448;-79
2022/08/23 04:27:32;;;;;;;6.35;5.75;;;13.60;99.90;;;;;;6118342;23;20021;-78
2022/08/23 04:30:54;;;;;;;6.60;6.00;;;13.50;99.90;;;;;;6216084;23;20100;-78
2022/08/23 04:33:48;;;;;;;6.82;6.10;;;13.50;99.90;;;;;;6178187;23;20016;-79
2022/08/23 04:36:53;;;;;;;6.95;6.35;;;13.50;99.90;;;;;;6184135;23;20063;-79
2022/08/23 04:43:48;;;;;;;6.68;6.07;;;13.40;99.90;;;;;;6176672;23;20017;-78
2022/08/23 04:47:31;;;;;;;;;;;;;;;;;;;;;
2022/08/23 04:51:24;;;;;;;;;;;;;;;;;;;;;
2022/08/23 04:54:40;;;;;;;7.55;6.85;;;13.50;99.90;;;;;;5927903;23;20017;-78
2022/08/23 04:57:44;;;;;;;8.57;7.78;;;13.60;99.90;;;;;;6088659;23;20177;-78
2022/08/23 05:00:59;;;;;;;8.30;7.60;;;13.60;99.90;;;;;;6194148;23;20020;-78
2022/08/23 05:04:44;;;;;;;8.70;7.93;;;13.60;99.90;;;;;;6054256;23;20014;-78
2022/08/23 05:07:36;;;;;;;;;;;;;;;;;;;;;
2022/08/23 05:15:48;;;;;;;;;;;;;;;;;;;;;
2022/08/23 05:19:02;;;;;;;7.90;7.10;;;13.90;99.90;;;;;;5970551;23;20043;-78
2022/08/23 05:22:53;;;;;;;9.02;8.13;;;14.00;99.90;;;;;;6037574;23;20023;-78
2022/08/23 05:30:20;;;;;;;;;;;;;;;;;;;;;
2022/08/23 05:37:32;;;;;;;21.05;18.83;;;14.80;99.90;;;;;;5983523;24;20053;-78
2022/08/23 05:40:48;;;;;;;22.20;19.92;;;15.00;99.90;;;;;;5827688;24;20017;-79
2022/08/23 05:44:06;;;;;;;20.35;18.25;;;15.10;99.90;;;;;;5965250;23;20027;-78
2022/08/23 05:47:14;;;;;;;22.35;20.15;;;15.40;99.90;;;;;;6004806;23;20075;-78
2022/08/23 05:50:50;;;;;;;19.83;17.90;;;15.50;99.90;;;;;;5920638;24;20115;-77
2022/08/23 05:53:58;;;;;;;18.83;17.13;;;15.60;99.90;;;;;;6015993;23;20018;-78
2022/08/23 06:01:10;;;;;;;19.60;17.70;;;15.70;99.90;;;;;;6157979;23;20097;-78
2022/08/23 06:08:56;;;;;;;18.85;17.05;;;15.90;99.90;;;;;;6020768;23;20130;-77
2022/08/23 06:11:54;;;;;;;19.48;17.67;;;16.00;99.90;;;;;;5983831;23;20028;-78
2022/08/23 06:15:25;;;;;;;17.50;16.00;;;16.20;99.90;;;;;;5978470;23;20083;-78
2022/08/23 06:19:07;;;;;;;;;;;;;;;;;;;;;
2022/08/23 06:22:46;;;;;;;16.05;14.65;;;16.30;99.90;;;;;;5927539;24;20029;-78
2022/08/23 06:33:41;;;;;;;16.65;15.15;;;16.50;99.90;;;;;;5956526;24;20046;-81
2022/08/23 06:49:05;;;;;;;20.27;18.50;;;16.80;99.90;;;;;;6193625;22;20024;-81
2022/08/23 06:51:37;;;;;;;18.67;17.08;;;16.90;99.90;;;;;;6193421;23;20020;-81
2022/08/23 06:54:07;;;;;;;18.60;17.08;;;17.10;99.90;;;;;;6218296;23;20012;-81
2022/08/23 06:56:32;;;;;;;20.40;18.77;;;17.20;99.90;;;;;;6218414;23;20023;-81
2022/08/23 06:58:58;;;;;;;18.17;16.58;;;17.40;99.90;;;;;;6190886;23;20004;-79
2022/08/23 07:01:51;;;;;;;15.95;14.65;;;17.50;99.90;;;;;;6163134;23;20440;-81
2022/08/23 07:04:21;;;;;;;17.17;15.77;;;17.60;99.90;;;;;;6188876;23;20023;-80
2022/08/23 07:06:47;;;;;;;18.77;17.17;;;17.80;99.90;;;;;;6187922;23;20444;-80
2022/08/23 07:09:13;;;;;;;19.60;18.02;;;17.90;99.90;;;;;;6185261;23;20384;-81
2022/08/23 07:11:40;;;;;;;18.60;17.00;;;18.00;99.90;;;;;;6162660;23;20067;-82
2022/08/23 07:14:09;;;;;;;17.90;16.20;;;18.20;99.90;;;;;;6161994;23;20429;-81
2022/08/23 07:16:38;;;;;;;15.55;14.25;;;18.40;99.90;;;;;;6188181;23;20016;-81
2022/08/23 07:19:05;;;;;;;14.38;13.13;;;18.50;99.90;;;;;;6162849;23;20329;-80
2022/08/23 07:21:31;;;;;;;15.07;13.77;;;18.60;99.90;;;;;;6162721;23;20017;-81
2022/08/23 07:23:57;;;;;;;14.23;13.05;;;18.70;99.90;;;;;;6162779;23;20433;-81
2022/08/23 07:26:24;;;;;;;12.32;11.23;;;18.90;99.90;;;;;;6187238;23;20008;-81
2022/08/23 07:28:49;;;;;;;12.57;11.45;;;19.10;99.90;;;;;;6162126;23;20087;-82
2022/08/23 07:31:22;;;;;;;11.60;10.57;;;19.20;99.90;;;;;;6187982;23;20378;-81
2022/08/23 07:33:49;;;;;;;12.00;10.95;;;19.30;99.90;;;;;;6186972;23;20008;-81
2022/08/23 07:36:19;;;;;;;11.52;10.63;;;19.30;99.90;;;;;;6163499;23;20016;-81
2022/08/23 07:38:45;;;;;;;11.82;10.73;;;19.30;99.90;;;;;;6187846;23;20061;-81
2022/08/23 07:41:12;;;;;;;11.90;10.90;;;19.40;99.90;;;;;;6212958;23;20322;-81
2022/08/23 07:43:38;;;;;;;11.45;10.55;;;19.50;99.90;;;;;;6187380;23;20013;-81
2022/08/23 07:46:05;;;;;;;11.80;10.68;;;19.50;99.90;;;;;;6161374;23;20105;-82
2022/08/23 07:48:32;;;;;;;11.15;10.23;;;19.60;99.90;;;;;;6162787;23;20352;-81
2022/08/23 07:51:00;;;;;;;11.85;10.85;;;19.70;99.90;;;;;;6161249;23;20277;-80
2022/08/23 07:53:26;;;;;;;11.35;10.35;;;19.90;99.90;;;;;;6186985;23;20009;-82
2022/08/23 07:55:52;;;;;;;11.32;10.23;;;20.00;99.90;;;;;;6187168;23;20031;-84
2022/08/23 07:58:19;;;;;;;10.98;9.88;;;20.20;99.90;;;;;;6162078;23;20185;-84
2022/08/23 08:00:45;;;;;;;11.07;10.13;;;20.30;99.90;;;;;;6161631;23;20084;-84
2022/08/23 08:03:12;;;;;;;10.80;9.80;;;20.50;99.90;;;;;;6186991;23;20055;-84
2022/08/23 08:05:38;;;;;;;10.50;9.55;;;20.70;99.90;;;;;;6162115;23;20032;-84
2022/08/23 08:08:04;;;;;;;9.57;8.77;;;20.90;99.90;;;;;;6162290;23;20444;-84
2022/08/23 08:10:31;;;;;;;9.48;8.68;;;21.10;99.90;;;;;;6162005;23;20102;-84
2022/08/23 08:12:57;;;;;;;9.65;8.85;;;21.30;99.90;;;;;;6162863;23;20023;-84
2022/08/23 08:15:23;;;;;;;9.10;8.30;;;21.50;99.90;;;;;;6162725;23;20009;-85
2022/08/23 08:17:50;;;;;;;9.40;8.60;;;21.60;99.90;;;;;;6186226;23;20013;-84
2022/08/23 08:20:17;;;;;;;8.38;7.68;;;21.80;99.90;;;;;;6186793;23;20014;-83
2022/08/23 08:22:44;;;;;;;8.95;8.13;;;21.90;99.90;;;;;;6187466;23;20025;-85
2022/08/23 08:25:10;;;;;;;8.20;7.40;;;22.00;99.90;;;;;;6162415;23;20012;-84
2022/08/23 08:27:36;;;;;;;8.93;8.15;;;22.10;99.90;;;;;;6161682;23;20433;-84
2022/08/23 08:30:07;;;;;;;7.95;7.20;;;22.30;99.90;;;;;;6187738;23;20137;-84
2022/08/23 08:32:34;;;;;;;8.30;7.45;;;22.50;99.90;;;;;;6187405;23;20020;-84
2022/08/23 08:35:01;;;;;;;7.82;7.13;;;22.70;99.90;;;;;;6162659;23;20012;-85
2022/08/23 08:37:27;;;;;;;7.90;7.20;;;23.00;99.90;;;;;;6187141;23;20762;-84
2022/08/23 08:39:53;;;;;;;7.38;6.68;;;23.60;99.90;;;;;;6162268;23;20040;-85
2022/08/23 08:42:31;;;;;;;6.72;6.13;;;24.30;99.90;;;;;;6162891;23;20009;-85
2022/08/23 08:45:11;;;;;;;7.90;6.53;;;25.10;99.90;;;;;;6187503;23;20016;-84
2022/08/23 08:47:55;;;;;;;7.57;6.82;;;25.40;99.90;;;;;;6160986;23;20023;-84
2022/08/23 08:50:32;;;;;;;7.40;6.70;;;25.40;99.90;;;;;;6185776;23;20460;-85
2022/08/23 08:53:23;;;;;;;7.50;6.80;;;25.40;99.90;;;;;;6162258;23;20055;-84
2022/08/23 08:55:52;;;;;;;6.95;6.25;;;25.40;99.90;;;;;;6161823;23;20096;-85
2022/08/23 08:58:27;;;;;;;7.50;6.75;;;25.40;99.90;;;;;;6162173;23;20012;-85
2022/08/23 09:00:53;;;;;;;7.13;6.43;;;25.30;99.90;;;;;;6187163;23;20048;-84
2022/08/23 09:03:20;;;;;;;7.97;6.85;;;25.30;99.90;;;;;;6160997;23;20099;-84
2022/08/23 09:06:13;;;;;;;6.82;6.22;;;25.30;99.90;;;;;;6161394;23;20008;-84
2022/08/23 09:08:48;;;;;;;;;;;25.50;99.90;;;;;;6162612;23;20016;-85
2022/08/23 09:11:39;;;;;;;6.25;5.75;;;25.60;99.90;;;;;;6162626;23;20330;-84
2022/08/23 09:14:48;;;;;;;5.55;5.05;;;26.00;99.90;;;;;;6162189;23;20369;-85
2022/08/23 09:17:29;;;;;;;6.40;5.72;;;26.60;96.40;;;;;;6187618;23;20322;-84
2022/08/23 09:19:59;;;;;;;6.03;5.50;;;26.80;94.80;;;;;;6187724;23;20013;-85
2022/08/23 09:22:33;;;;;;;5.70;5.20;;;26.70;95.00;;;;;;6185282;23;20047;-85
2022/08/23 09:24:59;;;;;;;5.43;4.93;;;26.80;95.40;;;;;;6186186;23;20349;-85
2022/08/23 09:27:25;;;;;;;5.68;5.13;;;26.90;95.20;;;;;;6161512;23;20017;-85
2022/08/23 09:29:59;;;;;;;5.82;5.22;;;27.00;94.40;;;;;;6161580;23;20009;-85
2022/08/23 09:32:45;;;;;;;5.82;5.22;;;27.30;93.50;;;;;;6185794;23;20070;-83
2022/08/23 09:35:20;;;;;;;6.18;5.20;;;27.50;91.80;;;;;;6187046;23;20012;-84
2022/08/23 09:38:09;;;;;;;6.32;5.82;;;27.90;91.60;;;;;;6161167;23;20019;-84
2022/08/23 09:40:42;;;;;;;5.93;5.35;;;28.10;91.50;;;;;;6146723;23;20015;-85
2022/08/23 09:43:18;;;;;;;6.05;5.15;;;28.30;89.20;;;;;;6163296;23;20019;-84
2022/08/23 09:45:49;;;;;;;5.80;5.07;;;28.40;89.10;;;;;;6161717;23;20548;-85
2022/08/23 09:48:39;;;;;;;6.82;5.15;;;28.40;87.10;;;;;;6164427;23;20017;-84
2022/08/23 09:51:21;;;;;;;6.90;5.95;;;28.50;85.90;;;;;;6189268;23;20024;-85
2022/08/23 09:53:51;;;;;;;6.32;5.78;;;28.70;84.80;;;;;;6164229;23;20044;-85
2022/08/23 09:56:23;;;;;;;6.13;5.53;;;28.70;83.20;;;;;;6163295;23;20096;-84
2022/08/23 09:58:51;;;;;;;5.65;5.15;;;28.90;83.40;;;;;;6162900;23;20147;-85
2022/08/23 10:01:26;;;;;;;5.30;4.90;;;29.00;82.90;;;;;;6163102;23;20028;-85
2022/08/23 10:04:15;;;;;;;5.20;4.70;;;29.30;82.50;;;;;;6188730;23;20012;-85
2022/08/23 10:06:44;;;;;;;5.20;4.70;;;29.70;76.40;;;;;;6164460;23;20019;-84
2022/08/23 10:09:31;;;;;;;4.85;3.90;;;30.00;79.10;;;;;;6164640;23;20060;-81
2022/08/23 10:12:00;;;;;;;4.30;3.90;;;30.20;75.90;;;;;;6163745;23;20452;-81
2022/08/23 10:14:28;;;;;;;5.38;4.18;;;30.30;78.00;;;;;;6163145;23;20005;-81
2022/08/23 10:17:18;;;;;;;5.28;4.78;;;30.40;76.80;;;;;;6187319;23;20021;-80
2022/08/23 10:19:52;;;;;;;4.93;4.13;;;30.50;73.70;;;;;;6188192;23;20009;-82
2022/08/23 10:22:31;;;;;;;4.93;4.20;;;30.70;75.60;;;;;;6163154;23;20009;-82
2022/08/23 10:25:06;;;;;;;4.68;4.28;;;30.80;68.40;;;;;;6163290;23;20016;-82
2022/08/23 10:30:44;;;;;;;4.80;4.25;;;30.70;69.40;;;;;;6187784;23;20070;-80
2022/08/23 10:33:22;;;;;;;4.60;4.20;;;30.70;70.60;;;;;;6164080;23;20348;-80
2022/08/23 10:35:56;;;;;;;5.15;3.80;;;30.80;70.10;;;;;;6188051;23;20048;-81
2022/08/23 10:38:41;;;;;;;4.90;3.50;;;30.80;69.80;;;;;;6162378;23;20399;-81
2022/08/23 10:41:45;;;;;;;3.40;2.80;;;30.90;67.40;;;;;;6188227;23;20036;-80
2022/08/23 10:44:34;;;;;;;3.03;2.67;;;31.00;66.20;;;;;;6137497;23;20048;-81
2022/08/23 10:47:23;;;;;;;2.97;2.67;;;31.20;68.70;;;;;;6163659;23;20024;-81
2022/08/23 10:49:52;;;;;;;2.50;2.15;;;31.40;69.00;;;;;;6163004;23;20352;-81
2022/08/23 10:52:32;;;;;;;3.45;2.50;;;31.70;69.40;;;;;;6163063;23;20012;-81
2022/08/23 10:55:16;;;;;;;3.22;2.40;;;31.80;67.50;;;;;;6161987;23;20008;-81
2022/08/23 10:57:44;;;;;;;3.13;2.83;;;31.80;68.00;;;;;;6162875;23;20441;-81
2022/08/23 11:00:21;;;;;;;3.15;2.50;;;31.60;65.90;;;;;;6188362;23;20142;-81
2022/08/23 11:03:08;;;;;;;2.95;2.65;;;31.50;65.80;;;;;;6188266;23;20008;-80
2022/08/23 11:05:36;;;;;;;2.97;2.33;;;31.60;65.60;;;;;;6187744;23;20020;-81
2022/08/23 11:08:06;;;;;;;3.10;2.13;;;31.70;64.40;;;;;;6163659;23;20009;-80
2022/08/23 11:10:38;;;;;;;1.80;1.70;;;31.60;63.60;;;;;;6188334;23;20008;-80
2022/08/23 11:13:19;;;;;;;2.30;1.90;;;31.50;64.00;;;;;;6163002;23;20067;-81
2022/08/23 11:15:59;;;;;;;2.33;2.08;;;31.50;64.10;;;;;;6187972;23;20017;-80
2022/08/23 11:18:25;;;;;;;3.63;2.10;;;31.70;64.00;;;;;;6187877;23;20031;-80
2022/08/23 11:20:52;;;;;;;1.95;1.60;;;31.90;64.70;;;;;;6188592;23;20012;-80
2022/08/23 11:23:43;;;;;;;2.67;2.00;;;32.00;63.70;;;;;;6163355;23;20372;-81
2022/08/23 11:26:35;;;;;;;1.88;1.77;;;32.20;62.70;;;;;;6156057;23;20016;-80
2022/08/23 11:29:07;;;;;;;2.13;1.92;;;32.20;61.50;;;;;;6145522;23;20023;-81
2022/08/23 11:31:34;;;;;;;2.03;1.70;;;32.20;60.10;;;;;;6188060;23;20044;-80
2022/08/23 11:34:18;;;;;;;1.95;1.80;;;32.20;59.10;;;;;;6187564;23;20392;-80
2022/08/23 11:37:16;;;;;;;1.60;1.50;;;32.00;56.90;;;;;;6164393;23;20096;-80
2022/08/23 11:39:57;;;;;;;4.93;1.27;;;31.80;57.70;;;;;;6163809;23;20013;-80
2022/08/23 11:42:48;;;;;;;2.03;1.15;;;32.00;58.50;;;;;;6162541;23;20024;-80
2022/08/23 11:45:23;;;;;;;2.55;1.40;;;32.20;55.60;;;;;;6153500;23;20015;-80
2022/08/23 11:48:07;;;;;;;1.80;1.27;;;32.30;57.50;;;;;;6186660;23;20559;-80
2022/08/23 11:50:48;;;;;;;2.03;1.20;;;32.60;57.20;;;;;;6188676;23;20004;-80
2022/08/23 11:53:21;;;;;;;2.72;1.60;;;32.70;54.90;;;;;;6188021;23;20044;-82
2022/08/23 11:56:12;;;;;;;2.40;1.45;;;32.80;55.80;;;;;;6185697;23;20092;-82
2022/08/23 11:59:20;;;;;;;2.10;1.30;;;32.90;56.40;;;;;;6187328;23;20013;-82
2022/08/23 12:01:46;;;;;;;1.92;1.38;;;33.00;55.40;;;;;;6118016;23;20015;-81
2022/08/23 12:04:36;;;;;;;1.45;1.20;;;33.20;56.50;;;;;;6162739;23;20017;-82
2022/08/23 12:07:10;;;;;;;1.50;1.15;;;33.40;54.20;;;;;;6187574;23;20016;-82
2022/08/23 12:09:39;;;;;;;1.40;1.20;;;33.50;55.60;;;;;;6187782;23;20012;-82
2022/08/23 12:12:27;;;;;;;1.70;1.33;;;33.70;55.10;;;;;;6163054;23;20357;-82
2022/08/23 12:14:58;;;;;;;2.42;1.60;;;33.90;54.10;;;;;;6162362;23;20009;-82
2022/08/23 12:17:27;;;;;;;2.53;1.50;;;34.10;54.50;;;;;;6161998;23;20047;-83
2022/08/23 12:19:53;;;;;;;2.63;1.60;;;34.20;54.80;;;;;;6162565;23;20016;-82
2022/08/23 12:22:23;;;;;;;2.08;1.50;;;34.20;55.10;;;;;;6162809;23;20019;-82
2022/08/23 12:25:01;;;;;;;3.00;1.50;;;34.10;55.00;;;;;;6163072;23;20023;-82
2022/08/23 12:27:32;;;;;;;2.03;1.65;;;33.90;54.40;;;;;;6162493;23;20445;-82
2022/08/23 12:30:01;;;;;;;1.77;1.60;;;33.60;53.80;;;;;;6162506;23;20008;-82
2022/08/23 12:32:54;;;;;;;1.50;1.40;;;33.00;54.50;;;;;;6162636;23;20012;-82
2022/08/23 12:35:25;;;;;;;;;;;32.60;56.00;;;;;;6188147;23;20023;-82
2022/08/23 12:37:57;;;;;;;3.55;1.70;;;32.40;53.80;;;;;;6186783;23;19922;-82
2022/08/23 12:40:36;;;;;;;3.22;1.90;;;32.10;55.90;;;;;;6162668;23;20019;-82
2022/08/23 12:43:06;;;;;;;4.05;1.77;;;32.10;56.60;;;;;;6162040;23;20031;-82
2022/08/23 12:45:41;;;;;;;2.92;2.00;;;32.10;56.50;;;;;;6161717;23;20106;-81
2022/08/23 12:48:10;;;;;;;3.40;1.98;;;32.00;57.00;;;;;;6185709;23;20009;-81
2022/08/23 12:50:39;;;;;;;3.22;1.98;;;31.90;57.70;;;;;;6162493;23;20008;-80
2022/08/23 12:53:14;;;;;;;2.63;2.00;;;31.80;58.50;;;;;;6187239;23;20012;-79
2022/08/23 12:55:46;;;;;;;2.20;2.05;;;31.70;58.80;;;;;;6187463;23;20358;-83
2022/08/23 12:58:15;;;;;;;2.20;2.00;;;31.80;58.40;;;;;;6160667;23;20063;-81
2022/08/23 13:00:53;;;;;;;1.98;1.88;;;32.10;57.60;;;;;;6187189;23;20015;-79
2022/08/23 13:03:29;;;;;;;3.20;2.00;;;32.40;57.70;;;;;;6185887;23;20016;-79
2022/08/23 13:05:56;;;;;;;2.47;2.10;;;32.60;57.80;;;;;;6161882;23;20017;-79
2022/08/23 13:08:38;;;;;;;2.85;2.20;;;32.80;57.20;;;;;;6186245;23;20091;-79
2022/08/23 13:11:05;;;;;;;3.28;2.03;;;32.90;55.50;;;;;;6162253;23;20357;-78
2022/08/23 13:13:31;;;;;;;2.42;1.70;;;32.90;55.90;;;;;;6162136;23;20330;-78
2022/08/23 13:16:00;;;;;;;2.63;1.90;;;32.70;56.30;;;;;;6186165;23;20048;-78
2022/08/23 13:18:29;;;;;;;3.25;1.90;;;32.50;55.90;;;;;;6163136;23;20036;-78
2022/08/23 13:21:25;;;;;;;3.47;2.00;;;32.30;55.80;;;;;;6188771;23;20012;-78
2022/08/23 13:24:29;;;;;;;2.67;2.42;;;32.00;56.90;;;;;;6188360;23;20013;-80
2022/08/23 13:27:35;;;;;;;3.50;1.90;;;31.90;57.10;;;;;;6188555;23;20456;-79
2022/08/23 13:30:18;;;;;;;2.38;1.73;;;31.80;56.70;;;;;;6158477;23;20016;-80
2022/08/23 13:32:48;;;;;;;;;;;31.70;57.10;;;;;;6164805;23;20016;-80
2022/08/23 13:35:36;;;;;;;2.53;2.10;;;31.60;56.60;;;;;;6188304;23;19922;-79
2022/08/23 13:38:16;;;;;;;3.13;2.00;;;31.50;57.30;;;;;;6163827;23;20013;-80
2022/08/23 13:40:59;;;;;;;3.30;2.08;;;31.60;57.30;;;;;;6164187;23;20353;-79
2022/08/23 13:43:26;;;;;;;2.05;1.85;;;31.80;56.80;;;;;;6188467;23;20009;-78
2022/08/23 13:45:54;;;;;;;2.85;2.20;;;32.30;57.10;;;;;;6162644;23;20023;-79
2022/08/23 13:48:25;;;;;;;2.80;2.05;;;32.90;56.50;;;;;;6187906;23;20514;-79
2022/08/23 13:50:51;;;;;;;1.83;1.73;;;33.00;55.90;;;;;;6188390;23;20020;-80
2022/08/23 13:53:18;;;;;;;2.58;1.80;;;33.10;55.90;;;;;;6163591;23;20079;-80
2022/08/23 13:55:48;;;;;;;2.53;1.65;;;33.00;56.00;;;;;;6163188;23;20453;-80
2022/08/23 13:58:28;;;;;;;2.50;2.03;;;32.60;55.90;;;;;;6163835;23;20345;-81
2022/08/23 14:00:55;;;;;;;3.67;1.80;;;32.30;55.70;;;;;;6163928;23;20040;-80
2022/08/23 14:03:21;;;;;;;3.50;2.08;;;32.30;56.60;;;;;;6188328;23;20013;-80
2022/08/23 14:05:46;;;;;;;2.00;1.80;;;32.50;56.50;;;;;;6187869;23;20100;-80
2022/08/23 14:08:12;;;;;;;2.20;1.92;;;32.80;56.30;;;;;;6188456;23;20012;-79
2022/08/23 14:10:37;;;;;;;2.55;1.80;;;33.00;56.10;;;;;;6188205;23;20013;-80
2022/08/23 14:13:03;;;;;;;2.83;1.70;;;33.10;55.60;;;;;;6163803;23;20464;-79
2022/08/23 14:15:29;;;;;;;2.20;2.00;;;33.20;55.50;;;;;;6188652;23;20012;-82
2022/08/23 14:17:56;;;;;;;2.90;2.05;;;33.20;53.40;;;;;;6188566;23;20005;-80
2022/08/23 14:20:24;;;;;;;2.45;2.00;;;33.00;53.20;;;;;;6163969;23;20019;-81
2022/08/23 14:22:50;;;;;;;2.80;1.60;;;32.70;52.90;;;;;;6163406;23;20034;-81
2022/08/23 14:25:16;;;;;;;2.75;1.75;;;32.40;54.40;;;;;;6163176;23;20472;-81
2022/08/23 14:27:45;;;;;;;2.20;1.98;;;31.90;55.30;;;;;;6162290;23;20023;-80
2022/08/23 14:30:21;;;;;;;3.20;1.83;;;31.40;56.10;;;;;;6162609;23;20461;-80
2022/08/23 14:32:47;;;;;;;2.60;1.63;;;31.00;56.70;;;;;;6188662;23;20037;-80
2022/08/23 14:35:12;;;;;;;2.00;1.77;;;30.60;57.40;;;;;;6187238;23;20345;-80
2022/08/23 14:37:38;;;;;;;2.65;1.98;;;30.30;58.10;;;;;;6163389;23;20019;-81
2022/08/23 14:40:04;;;;;;;2.15;1.70;;;30.20;57.90;;;;;;6187610;23;20013;-81
2022/08/23 14:42:30;;;;;;;2.38;1.88;;;30.00;58.70;;;;;;6163661;23;20031;-81
2022/08/23 14:44:56;;;;;;;2.22;1.83;;;29.80;59.20;;;;;;6187177;23;20042;-81